Thunder radar more information blitzortung!


Rain radar  rain snow radar



Ingen spesiell oppmerksomhet nødvendig.    Det er ingen advarsler

Nearby METAR Reports

   
ENZV - Stavanger
Oppdatert: Dec 1 2020 6:20 pm
Klart  
Klart  
   Vind: SØ 2.1 m/s
Vind: SØ 2.1 m/s
Temperatur: 3°C
Wind Chill: 1°C
Duggpunkt: 1°C
Luftfuktighet: 87%
Barometer: 1023 hPa
Sikt: More than 10 km
Detaljer skyer: Klart ft
ENZV 011720Z 14004KT 110V180 CAVOK 03/01 Q1023 NOSIG
ENCN - Kristiansand
Oppdatert: Dec 1 2020 6:20 pm
Klart  
Klart  
   Vind: NØ 3.1 m/s
Vind: NØ 3.1 m/s
Temperatur: 0°C
Wind Chill: -3°C
Duggpunkt: -1°C
Luftfuktighet: 93%
Barometer: 1024 hPa
Sikt: More than 10 km
Detaljer skyer: Klart ft
ENCN 011720Z 04006KT CAVOK M00/M01 Q1024
ENBR - Bergen
Oppdatert: Dec 1 2020 6:20 pm
For det meste Overskyet  
For det meste Overskyet  
   Vind: VSV 1.5 m/s
Vind: VSV 1.5 m/s
Temperatur: 2°C
Wind Chill: 1°C
Duggpunkt: 1°C
Luftfuktighet: 93%
Barometer: 1022 hPa
Skyer: Mostly Cloudy
Sikt: More than 10 km
Detaljer skyer: Noen skyer 2000 ft,
For det meste Overskyet 13000 ft
ENBR 011720Z 25003KT 190V310 9999 FEW020 BKN130 02/01 Q1022 NOSIG RMK WIND 1200FT 16013KT
ENGM - Oslo
Oppdatert: Dec 1 2020 6:20 pm
For det meste Overskyet  
For det meste Overskyet  
   Vind: VNV 0.5 m/s
Vind: VNV 0.5 m/s
Temperatur: -2°C
Duggpunkt: -2°C
Luftfuktighet: 100%
Barometer: 1023 hPa
Skyer: Mostly Cloudy
Sikt: More than 10 km
Detaljer skyer: Noen skyer 300 ft,
For det meste Overskyet 23000 ft
ENGM 011720Z 29001KT 9999 3800W FEW003 BKN230 M02/M02 Q1023 NOSIG
ENVA - Trondheim
Oppdatert: Dec 1 2020 6:20 pm
Klart  
Klart  
   Vind: Øst 1.5 m/s
Vind: Øst 1.5 m/s
Temperatur: 0°C
Wind Chill: -2°C
Duggpunkt: -1°C
Luftfuktighet: 93%
Barometer: 1021 hPa
Sikt: More than 10 km
Detaljer skyer: Klart ft
ENVA 011720Z 08003KT CAVOK M00/M01 Q1021 NOSIG RMK WIND 670FT 16011KT
ENTC - Tromsø
Oppdatert: Dec 1 2020 6:20 pm
Lette byger, Snø, For det meste Overskyet  
Lette byger, Snø, For det meste Overskyet  
   Vind: NNV 2.1 m/s
Vind: NNV 2.1 m/s
Temperatur: 0°C
Wind Chill: -3°C
Duggpunkt: -4°C
Luftfuktighet: 75%
Barometer: 1016 hPa
Skyer: Mostly Cloudy
Sikt: More than 10 km
Detaljer skyer: For det meste Overskyet 2500 ft
ENTC 011720Z 33004KT 290V010 9999 -SHSN BKN025 M00/M04 Q1016 RMK WIND 2600FT 32016KT

Script utviklet av  Saratoga-weather.org Tilpasset for tamplaten av  Weerstation Leuven

Du finner vår vær info også på:

European Weather Network

WeatherCloud

Weather Underground

AWEKAS

HAMweather, WeatherForYou, PWS Weather

Utrustning vi bruker:

vær-station
Davis VP2

vær-programmet
Weather Display

Davis VP2

Weather Display